createdAt,value
2017-10-07T00:00:30.343Z,51.40
2017-10-07T00:02:58.411Z,51.60
2017-10-07T00:05:26.488Z,52.20
2017-10-07T00:07:54.542Z,52.50
2017-10-07T00:10:22.623Z,52.50
2017-10-07T00:12:50.697Z,52.80
2017-10-07T00:15:18.774Z,53.30
2017-10-07T00:17:46.831Z,53.10
2017-10-07T00:20:14.911Z,51.80
2017-10-07T00:22:43.097Z,52.40
2017-10-07T00:25:11.180Z,51.80
2017-10-07T00:27:40.024Z,51.60
2017-10-07T00:30:08.108Z,51.50
2017-10-07T00:32:36.184Z,51.80
2017-10-07T00:35:04.337Z,51.50
2017-10-07T00:37:32.423Z,51.90
2017-10-07T00:40:00.520Z,51.30
2017-10-07T00:42:28.592Z,51.60
2017-10-07T00:44:56.671Z,51.20
2017-10-07T00:47:24.730Z,50.80
2017-10-07T00:49:52.815Z,50.80
2017-10-07T00:52:20.880Z,50.70
2017-10-07T00:54:48.971Z,50.90
2017-10-07T00:57:17.798Z,51.30
2017-10-07T00:59:46.651Z,51.00
2017-10-07T01:02:15.483Z,51.10
2017-10-07T01:04:43.567Z,50.60
2017-10-07T01:07:11.632Z,51.30
2017-10-07T01:09:39.712Z,51.00
2017-10-07T01:12:07.795Z,51.10
2017-10-07T01:14:35.884Z,51.00
2017-10-07T01:17:03.955Z,50.50
2017-10-07T01:19:32.040Z,51.00
2017-10-07T01:22:00.107Z,50.80
2017-10-07T01:24:28.188Z,50.70
2017-10-07T01:26:56.260Z,51.00
2017-10-07T01:29:24.339Z,50.10
2017-10-07T01:31:53.188Z,50.50
2017-10-07T01:34:21.262Z,50.50
2017-10-07T01:36:49.335Z,50.40
2017-10-07T01:39:17.415Z,50.70
2017-10-07T01:41:45.493Z,51.00
2017-10-07T01:44:13.588Z,51.00
2017-10-07T01:46:41.655Z,50.70
2017-10-07T01:49:09.746Z,50.70
2017-10-07T01:51:37.799Z,50.50
2017-10-07T01:54:05.878Z,51.50
2017-10-07T01:56:34.095Z,50.90
2017-10-07T01:59:02.172Z,50.70
2017-10-07T02:01:30.248Z,50.90
2017-10-07T02:03:59.091Z,51.00
2017-10-07T02:06:27.935Z,50.90
2017-10-07T02:08:56.032Z,50.60
2017-10-07T02:11:24.107Z,50.80
2017-10-07T02:13:52.191Z,50.60
2017-10-07T02:16:20.255Z,50.60
2017-10-07T02:18:48.324Z,50.60
2017-10-07T02:21:16.411Z,50.40
2017-10-07T02:23:44.491Z,50.50
2017-10-07T02:26:13.335Z,50.70
2017-10-07T02:28:42.171Z,50.70
2017-10-07T02:31:10.252Z,50.70
2017-10-07T02:33:39.094Z,50.60
2017-10-07T02:36:07.175Z,50.60
2017-10-07T02:38:35.259Z,50.60
2017-10-07T02:41:03.334Z,50.00
2017-10-07T02:43:31.403Z,50.30
2017-10-07T02:45:59.487Z,49.90
2017-10-07T02:48:27.559Z,50.40
2017-10-07T02:50:55.634Z,50.90
2017-10-07T02:53:23.711Z,50.80
2017-10-07T02:55:51.796Z,51.10
2017-10-07T02:58:20.635Z,51.20
2017-10-07T03:00:48.715Z,51.10
2017-10-07T03:03:16.795Z,51.10
2017-10-07T03:05:45.799Z,51.30
2017-10-07T03:08:13.870Z,51.20
2017-10-07T03:10:41.951Z,50.90
2017-10-07T03:13:10.028Z,51.10
2017-10-07T03:15:38.107Z,50.90
2017-10-07T03:18:06.962Z,51.10
2017-10-07T03:20:35.329Z,51.00
2017-10-07T03:23:03.402Z,50.90
2017-10-07T03:25:31.488Z,51.10
2017-10-07T03:27:59.583Z,51.20
2017-10-07T03:30:27.672Z,51.50
2017-10-07T03:32:56.515Z,51.40
2017-10-07T03:35:24.598Z,51.40
2017-10-07T03:37:52.671Z,51.30
2017-10-07T03:40:20.767Z,51.70
2017-10-07T03:42:48.837Z,51.50
2017-10-07T03:45:16.924Z,51.60
2017-10-07T03:47:45.759Z,52.10
2017-10-07T03:50:13.848Z,51.50
2017-10-07T03:52:41.919Z,51.50
2017-10-07T03:55:09.998Z,51.40
2017-10-07T03:57:38.068Z,51.40
2017-10-07T04:00:06.159Z,51.10
2017-10-07T04:02:34.232Z,50.80
2017-10-07T04:05:02.315Z,51.00
2017-10-07T04:07:30.391Z,51.10
2017-10-07T04:09:59.242Z,51.90
2017-10-07T04:12:27.318Z,51.20
2017-10-07T04:14:55.437Z,51.00
2017-10-07T04:17:23.491Z,51.00
2017-10-07T04:19:51.579Z,51.20
2017-10-07T04:22:20.440Z,51.50
2017-10-07T04:24:48.552Z,51.40
2017-10-07T04:27:17.392Z,51.30
2017-10-07T04:29:45.472Z,52.20
2017-10-07T04:32:13.540Z,51.30
2017-10-07T04:34:42.399Z,51.40
2017-10-07T04:37:10.476Z,51.00
2017-10-07T04:39:38.555Z,51.10
2017-10-07T04:42:07.396Z,51.10
2017-10-07T04:44:35.475Z,52.00
2017-10-07T04:47:04.303Z,52.00
2017-10-07T04:49:32.388Z,52.00
2017-10-07T04:52:00.460Z,51.00
2017-10-07T04:54:28.570Z,51.00
2017-10-07T04:56:56.648Z,51.00
2017-10-07T04:59:24.714Z,51.70
2017-10-07T05:01:52.787Z,51.20
2017-10-07T05:04:20.855Z,50.40
2017-10-07T05:06:48.935Z,50.10
2017-10-07T05:09:17.007Z,50.00
2017-10-07T05:11:45.097Z,50.90
2017-10-07T05:14:13.935Z,49.60
2017-10-07T05:16:42.021Z,49.50
2017-10-07T05:19:10.091Z,49.40
2017-10-07T05:21:38.176Z,49.70
2017-10-07T05:24:06.248Z,49.40
2017-10-07T05:26:34.333Z,49.40
2017-10-07T05:29:02.404Z,49.40
2017-10-07T05:31:30.479Z,49.40
2017-10-07T05:33:58.556Z,49.50
2017-10-07T05:36:27.406Z,48.90
2017-10-07T05:38:55.487Z,48.30
2017-10-07T05:41:23.586Z,48.20
2017-10-07T05:43:51.647Z,48.10
2017-10-07T05:46:19.739Z,48.20
2017-10-07T05:48:48.594Z,48.40
2017-10-07T05:51:16.683Z,48.30
2017-10-07T05:53:44.760Z,48.60
2017-10-07T05:56:12.848Z,48.60
2017-10-07T05:58:40.920Z,48.60
2017-10-07T06:01:09.094Z,48.90
2017-10-07T06:03:37.160Z,49.50
2017-10-07T06:06:05.235Z,49.50
2017-10-07T06:08:33.314Z,49.40
2017-10-07T06:11:01.387Z,49.40
2017-10-07T06:13:30.223Z,49.50
2017-10-07T06:15:58.315Z,49.50
2017-10-07T06:18:26.399Z,49.50
2017-10-07T06:20:54.476Z,49.40
2017-10-07T06:23:22.552Z,49.80
2017-10-07T06:25:50.676Z,50.00
2017-10-07T06:28:18.735Z,50.20
2017-10-07T06:30:46.825Z,50.60
2017-10-07T06:33:14.899Z,51.00
2017-10-07T06:35:42.974Z,50.00
2017-10-07T06:38:11.046Z,50.20
2017-10-07T06:40:39.119Z,50.50
2017-10-07T06:43:07.196Z,49.50
2017-10-07T06:45:35.284Z,49.60
2017-10-07T06:48:03.356Z,49.60
2017-10-07T06:50:31.431Z,49.60
2017-10-07T06:52:59.504Z,49.50
2017-10-07T06:55:27.592Z,49.60
2017-10-07T06:57:55.665Z,49.70
2017-10-07T07:00:23.748Z,49.70
2017-10-07T07:02:51.819Z,49.60
2017-10-07T07:05:19.896Z,49.20
2017-10-07T07:07:47.983Z,49.50
2017-10-07T07:10:16.832Z,50.50
2017-10-07T07:12:44.931Z,49.80
2017-10-07T07:15:13.011Z,49.80
2017-10-07T07:17:41.865Z,49.90
2017-10-07T07:20:09.955Z,49.80
2017-10-07T07:22:38.031Z,49.80
2017-10-07T07:25:06.096Z,49.00
2017-10-07T07:27:34.203Z,48.60
2017-10-07T07:30:03.047Z,47.40
2017-10-07T07:32:31.126Z,47.40
2017-10-07T07:34:59.196Z,47.30
2017-10-07T07:37:27.280Z,47.20
2017-10-07T07:39:55.366Z,46.10
2017-10-07T07:42:23.448Z,46.30
2017-10-07T07:44:52.284Z,45.60
2017-10-07T07:47:21.128Z,45.70
2017-10-07T07:49:49.967Z,45.50
2017-10-07T07:52:18.052Z,45.50
2017-10-07T07:54:46.140Z,44.70
2017-10-07T07:57:14.233Z,45.20
2017-10-07T07:59:42.295Z,45.40
2017-10-07T08:02:10.382Z,44.90
2017-10-07T08:04:39.223Z,45.30
2017-10-07T08:07:07.402Z,45.30
2017-10-07T08:09:35.473Z,44.60
2017-10-07T08:12:03.556Z,44.00
2017-10-07T08:14:31.632Z,43.30
2017-10-07T08:16:59.708Z,43.20
2017-10-07T08:19:27.785Z,43.20
2017-10-07T08:21:55.863Z,44.20
2017-10-07T08:24:23.932Z,42.90
2017-10-07T08:26:52.019Z,43.00
2017-10-07T08:29:20.123Z,43.50
2017-10-07T08:31:48.224Z,42.90
2017-10-07T08:34:16.303Z,41.40
2017-10-07T08:36:44.395Z,41.50
2017-10-07T08:39:13.391Z,41.60
2017-10-07T08:41:41.472Z,41.60
2017-10-07T08:44:09.547Z,41.50
2017-10-07T08:46:37.623Z,41.50
2017-10-07T08:49:05.703Z,42.00
2017-10-07T08:51:34.560Z,40.20
2017-10-07T08:54:02.631Z,40.10
2017-10-07T08:56:30.708Z,40.60
2017-10-07T08:58:58.803Z,41.10
2017-10-07T09:01:26.874Z,42.00
2017-10-07T09:03:54.978Z,40.00
2017-10-07T09:06:23.043Z,39.20
2017-10-07T09:08:51.133Z,39.50
2017-10-07T09:11:19.205Z,39.50
2017-10-07T09:13:47.300Z,38.70
2017-10-07T09:16:15.371Z,37.80
2017-10-07T09:18:43.465Z,37.90
2017-10-07T09:21:11.531Z,36.80
2017-10-07T09:23:39.617Z,37.00
2017-10-07T09:26:07.699Z,35.80
2017-10-07T09:28:35.780Z,36.10
2017-10-07T09:31:03.864Z,36.50
2017-10-07T09:33:32.774Z,36.40
2017-10-07T09:36:00.859Z,36.30
2017-10-07T09:38:28.978Z,36.40
2017-10-07T09:40:57.847Z,34.90
2017-10-07T09:43:25.924Z,34.90
2017-10-07T09:45:54.012Z,34.10
2017-10-07T09:48:22.106Z,33.80
2017-10-07T09:50:50.183Z,33.40
2017-10-07T09:53:19.028Z,33.40
2017-10-07T09:55:47.104Z,33.40
2017-10-07T09:58:15.191Z,32.10
2017-10-07T10:00:43.264Z,32.60
2017-10-07T10:03:17.234Z,32.10
2017-10-07T10:05:45.311Z,30.80
2017-10-07T10:08:13.424Z,30.00
2017-10-07T10:10:42.281Z,30.30
2017-10-07T10:13:10.380Z,30.20
2017-10-07T10:15:38.456Z,29.70
2017-10-07T10:18:06.540Z,29.20
2017-10-07T10:20:34.610Z,29.20
2017-10-07T10:23:02.682Z,29.20
2017-10-07T10:25:30.781Z,29.40
2017-10-07T10:27:59.615Z,28.60
2017-10-07T10:30:27.696Z,28.60
2017-10-07T10:32:55.762Z,29.20
2017-10-07T10:35:23.851Z,27.90
2017-10-07T10:37:51.926Z,28.30
2017-10-07T10:40:20.010Z,28.20
2017-10-07T10:42:48.082Z,27.90
2017-10-07T10:45:16.159Z,27.30
2017-10-07T10:47:44.231Z,25.80
2017-10-07T10:50:12.307Z,26.40
2017-10-07T10:52:41.136Z,25.70
2017-10-07T10:55:09.212Z,25.70
2017-10-07T10:57:38.051Z,27.20
2017-10-07T11:00:06.127Z,27.80
2017-10-07T11:02:34.353Z,26.80
2017-10-07T11:05:02.524Z,26.20
2017-10-07T11:07:30.640Z,25.50
2017-10-07T11:09:58.926Z,25.50
2017-10-07T11:12:28.098Z,25.20
2017-10-07T11:14:56.247Z,25.20
2017-10-07T11:17:24.921Z,24.50
2017-10-07T11:19:53.016Z,24.90
2017-10-07T11:22:21.104Z,25.00
2017-10-07T11:24:49.182Z,24.90
2017-10-07T11:27:17.264Z,25.40
2017-10-07T11:29:45.336Z,25.00
2017-10-07T11:32:13.423Z,25.10
2017-10-07T11:34:41.491Z,24.50
2017-10-07T11:37:09.563Z,24.10
2017-10-07T11:39:37.631Z,24.00
2017-10-07T11:42:05.711Z,24.00
2017-10-07T11:44:33.786Z,24.00
2017-10-07T11:47:02.640Z,25.50
2017-10-07T11:49:30.720Z,25.10
2017-10-07T11:51:58.798Z,24.90
2017-10-07T11:54:26.866Z,25.20
2017-10-07T11:56:54.952Z,25.20
2017-10-07T11:59:23.023Z,25.10
2017-10-07T12:01:51.123Z,24.20
2017-10-07T12:04:19.958Z,23.70
2017-10-07T12:06:48.048Z,23.60
2017-10-07T12:09:16.119Z,24.00
2017-10-07T12:11:44.220Z,23.50
2017-10-07T12:14:12.300Z,24.00
2017-10-07T12:16:41.133Z,24.50
2017-10-07T12:19:09.975Z,24.10
2017-10-07T12:21:38.048Z,24.20
2017-10-07T12:24:06.136Z,27.70
2017-10-07T12:26:34.980Z,24.60
2017-10-07T12:29:03.050Z,24.60
2017-10-07T12:31:31.126Z,25.10
2017-10-07T12:33:59.210Z,25.30
2017-10-07T12:36:27.283Z,24.50
2017-10-07T12:38:55.371Z,24.40
2017-10-07T12:41:23.463Z,25.00
2017-10-07T12:43:52.306Z,24.90
2017-10-07T12:46:20.392Z,24.90
2017-10-07T12:48:48.476Z,24.80
2017-10-07T12:51:16.550Z,25.10
2017-10-07T12:53:44.623Z,25.60
2017-10-07T12:56:12.706Z,25.60
2017-10-07T12:58:41.563Z,25.60
2017-10-07T13:01:09.648Z,25.50
2017-10-07T13:03:37.718Z,25.50
2017-10-07T13:06:05.804Z,25.50
2017-10-07T13:08:33.887Z,25.60
2017-10-07T13:11:02.738Z,26.10
2017-10-07T13:13:30.812Z,26.10
2017-10-07T13:15:58.900Z,26.30
2017-10-07T13:18:26.975Z,25.60
2017-10-07T13:20:55.061Z,25.90
2017-10-07T13:23:23.136Z,25.90
2017-10-07T13:25:51.994Z,26.90
2017-10-07T13:28:20.078Z,26.90
2017-10-07T13:30:48.170Z,26.40
2017-10-07T13:33:17.088Z,26.60
2017-10-07T13:35:45.245Z,26.60
2017-10-07T13:38:14.100Z,27.10
2017-10-07T13:40:42.174Z,27.00
2017-10-07T13:43:10.255Z,27.00
2017-10-07T13:45:38.327Z,27.40
2017-10-07T13:48:06.402Z,27.30
2017-10-07T13:50:34.474Z,26.70
2017-10-07T13:53:02.554Z,26.50
2017-10-07T13:55:30.633Z,25.50
2017-10-07T13:57:58.703Z,25.20
2017-10-07T14:00:26.771Z,25.50
2017-10-07T14:02:54.880Z,25.40
2017-10-07T14:05:22.939Z,25.50
2017-10-07T14:07:51.784Z,25.30
2017-10-07T14:10:19.856Z,25.30
2017-10-07T14:12:47.931Z,25.40
2017-10-07T14:15:16.003Z,25.30
2017-10-07T14:17:44.082Z,25.80
2017-10-07T14:20:12.164Z,25.90
2017-10-07T14:22:40.247Z,25.50
2017-10-07T14:25:09.112Z,25.40
2017-10-07T14:27:37.216Z,25.40
2017-10-07T14:30:05.297Z,25.60
2017-10-07T14:32:34.138Z,25.40
2017-10-07T14:35:02.210Z,25.50
2017-10-07T14:37:30.303Z,25.90
2017-10-07T14:39:58.380Z,25.80
2017-10-07T14:42:28.813Z,26.10
2017-10-07T14:44:56.990Z,26.20
2017-10-07T14:47:25.056Z,26.40
2017-10-07T14:49:53.141Z,26.40
2017-10-07T14:52:21.227Z,26.80
2017-10-07T14:54:50.514Z,26.80
2017-10-07T14:57:18.770Z,26.80
2017-10-07T14:59:47.953Z,27.10
2017-10-07T15:02:16.971Z,27.50
2017-10-07T15:04:45.435Z,27.80
2017-10-07T15:07:14.019Z,28.20
2017-10-07T15:09:43.052Z,28.40
2017-10-07T15:12:26.611Z,28.50
2017-10-07T15:14:54.968Z,28.50
2017-10-07T15:17:23.820Z,29.00
2017-10-07T15:19:51.896Z,28.90
2017-10-07T15:22:19.984Z,29.60
2017-10-07T15:24:48.047Z,28.90
2017-10-07T15:27:16.126Z,28.80
2017-10-07T15:29:44.219Z,29.00
2017-10-07T15:32:13.070Z,29.10
2017-10-07T15:34:41.147Z,29.10
2017-10-07T15:37:09.219Z,29.20
2017-10-07T15:39:37.292Z,29.10
2017-10-07T15:42:05.378Z,29.00
2017-10-07T15:44:33.464Z,29.30
2017-10-07T15:47:01.527Z,29.40
2017-10-07T15:49:29.606Z,29.70
2017-10-07T15:51:57.679Z,29.80
2017-10-07T15:54:25.764Z,30.00
2017-10-07T15:56:54.632Z,30.90
2017-10-07T15:59:22.709Z,30.80
2017-10-07T16:01:50.781Z,31.30
2017-10-07T16:04:18.864Z,32.20
2017-10-07T16:06:46.938Z,33.10
2017-10-07T16:09:15.015Z,33.50
2017-10-07T16:11:43.851Z,33.80
2017-10-07T16:17:50.824Z,34.90
2017-10-07T16:20:18.927Z,34.80
2017-10-07T16:22:47.777Z,36.70
2017-10-07T16:25:16.603Z,37.50
2017-10-07T16:27:45.456Z,37.80
2017-10-07T16:30:13.528Z,37.80
2017-10-07T16:32:43.944Z,38.00
2017-10-07T16:35:12.819Z,38.00
2017-10-07T16:37:41.202Z,38.00
2017-10-07T16:40:09.291Z,38.60
2017-10-07T16:42:38.697Z,39.40
2017-10-07T16:45:06.770Z,38.00
2017-10-07T16:47:34.844Z,39.00
2017-10-07T16:50:03.707Z,39.70
2017-10-07T16:52:31.785Z,39.00
2017-10-07T16:54:59.872Z,39.50
2017-10-07T16:57:27.955Z,39.70
2017-10-07T16:59:56.788Z,40.00
2017-10-07T17:02:24.870Z,40.00
2017-10-07T17:04:53.807Z,37.30
2017-10-07T17:07:21.908Z,37.30
2017-10-07T17:09:49.983Z,38.30
2017-10-07T17:12:19.227Z,39.00
2017-10-07T17:14:47.419Z,38.00
2017-10-07T17:17:15.496Z,39.00
2017-10-07T17:19:43.573Z,38.40
2017-10-07T17:22:12.411Z,39.10
2017-10-07T17:24:40.491Z,39.00
2017-10-07T17:27:08.620Z,40.00
2017-10-07T17:29:37.466Z,39.40
2017-10-07T17:32:05.544Z,39.40
2017-10-07T17:34:33.631Z,39.60
2017-10-07T17:37:01.759Z,40.00
2017-10-07T17:39:29.835Z,39.70
2017-10-07T17:41:57.930Z,39.50
2017-10-07T17:44:26.007Z,38.70
2017-10-07T17:46:54.074Z,40.30
2017-10-07T17:49:22.168Z,38.70
2017-10-07T17:51:50.253Z,39.10
2017-10-07T17:54:18.315Z,38.50
2017-10-07T17:56:46.395Z,39.10
2017-10-07T17:59:14.468Z,38.50
2017-10-07T18:01:42.556Z,38.90
2017-10-07T18:04:11.402Z,38.60
2017-10-07T18:06:39.493Z,38.50
2017-10-07T18:09:07.563Z,38.60
2017-10-07T18:11:35.647Z,37.50
2017-10-07T18:14:03.724Z,36.80
2017-10-07T18:16:31.870Z,34.90
2017-10-07T18:19:00.748Z,33.20
2017-10-07T18:21:30.016Z,33.10
2017-10-07T18:23:58.088Z,30.80
2017-10-07T18:26:26.177Z,31.70
2017-10-07T18:28:54.253Z,31.10
2017-10-07T18:31:22.340Z,31.40
2017-10-07T18:33:50.412Z,31.10
2017-10-07T18:36:18.487Z,30.30
2017-10-07T18:38:46.575Z,30.40
2017-10-07T18:41:14.664Z,30.10
2017-10-07T18:43:42.739Z,30.60
2017-10-07T18:46:10.804Z,30.30
2017-10-07T18:48:38.883Z,29.90
2017-10-07T18:51:06.972Z,30.50
2017-10-07T18:53:35.819Z,30.40
2017-10-07T18:56:03.895Z,30.30
2017-10-07T18:58:31.972Z,30.70
2017-10-07T19:01:00.045Z,30.50
2017-10-07T19:03:28.130Z,30.90
2017-10-07T19:05:56.211Z,31.10
2017-10-07T19:08:24.282Z,31.70
2017-10-07T19:10:52.351Z,31.10
2017-10-07T19:13:20.436Z,31.60
2017-10-07T19:15:49.278Z,32.40
2017-10-07T19:18:17.364Z,32.40
2017-10-07T19:20:45.437Z,32.40
2017-10-07T19:23:13.530Z,32.40
2017-10-07T19:25:41.595Z,32.40
2017-10-07T19:28:09.700Z,32.40
2017-10-07T19:30:38.571Z,32.50
2017-10-07T19:33:06.635Z,32.40
2017-10-07T19:35:34.711Z,32.40
2017-10-07T19:38:02.793Z,32.40
2017-10-07T19:40:30.872Z,32.30
2017-10-07T19:42:59.716Z,32.80
2017-10-07T19:45:27.794Z,32.80
2017-10-07T19:47:55.870Z,33.20
2017-10-07T19:50:23.944Z,33.90
2017-10-07T19:52:52.011Z,35.20
2017-10-07T19:55:20.092Z,34.50
2017-10-07T19:57:48.159Z,35.30
2017-10-07T20:00:16.253Z,36.60
2017-10-07T20:02:44.323Z,36.30
2017-10-07T20:05:12.407Z,38.70
2017-10-07T20:07:40.487Z,37.90
2017-10-07T20:10:09.344Z,38.30
2017-10-07T20:12:37.416Z,37.90
2017-10-07T20:15:05.487Z,38.00
2017-10-07T20:17:33.563Z,38.00
2017-10-07T20:20:01.633Z,38.80
2017-10-07T20:22:29.725Z,38.10
2017-10-07T20:24:57.793Z,38.80
2017-10-07T20:27:25.879Z,38.80
2017-10-07T20:29:53.943Z,39.40
2017-10-07T20:32:22.023Z,39.30
2017-10-07T20:34:50.102Z,39.90
2017-10-07T20:37:18.996Z,40.10
2017-10-07T20:39:47.843Z,41.10
2017-10-07T20:42:15.936Z,41.10
2017-10-07T20:44:44.007Z,40.80
2017-10-07T20:47:12.084Z,40.30
2017-10-07T20:49:40.160Z,41.60
2017-10-07T20:52:08.245Z,41.00
2017-10-07T20:54:37.099Z,42.20
2017-10-07T20:57:05.173Z,41.50
2017-10-07T20:59:33.267Z,43.10
2017-10-07T21:02:01.336Z,43.70
2017-10-07T21:04:29.419Z,45.20
2017-10-07T21:06:57.483Z,45.60
2017-10-07T21:09:25.563Z,46.50
2017-10-07T21:11:53.652Z,46.50
2017-10-07T21:14:22.504Z,46.80
2017-10-07T21:16:50.582Z,46.80
2017-10-07T21:19:18.735Z,47.40
2017-10-07T21:21:46.816Z,47.30
2017-10-07T21:24:14.897Z,48.00
2017-10-07T21:26:42.968Z,47.20
2017-10-07T21:29:11.055Z,47.40
2017-10-07T21:31:39.135Z,48.10
2017-10-07T21:34:08.035Z,48.50
2017-10-07T21:36:36.095Z,48.40
2017-10-07T21:39:04.187Z,49.00
2017-10-07T21:41:33.033Z,49.40
2017-10-07T21:44:01.113Z,49.40
2017-10-07T21:46:29.199Z,50.00
2017-10-07T21:48:57.271Z,50.00
2017-10-07T21:51:25.353Z,50.00
2017-10-07T21:53:53.422Z,51.30
2017-10-07T21:56:21.602Z,49.50
2017-10-07T21:58:49.675Z,49.80
2017-10-07T22:01:17.751Z,50.50
2017-10-07T22:03:45.820Z,49.80
2017-10-07T22:06:13.904Z,50.40
2017-10-07T22:08:42.759Z,50.00
2017-10-07T22:11:10.995Z,50.00
2017-10-07T22:13:39.064Z,50.30
2017-10-07T22:16:07.153Z,49.50
2017-10-07T22:18:35.227Z,49.50
2017-10-07T22:21:03.304Z,49.60
2017-10-07T22:23:31.379Z,49.50
2017-10-07T22:26:00.212Z,49.60
2017-10-07T22:28:28.287Z,49.50
2017-10-07T22:30:56.364Z,49.50
2017-10-07T22:33:24.439Z,49.30
2017-10-07T22:35:53.290Z,49.60
2017-10-07T22:38:21.368Z,49.60
2017-10-07T22:40:49.443Z,49.60
2017-10-07T22:43:17.511Z,49.60
2017-10-07T22:45:45.594Z,48.70
2017-10-07T22:48:13.671Z,48.80
2017-10-07T22:50:41.756Z,49.00
2017-10-07T22:53:09.827Z,49.70
2017-10-07T22:55:37.903Z,49.10
2017-10-07T22:58:05.980Z,49.60
2017-10-07T23:00:34.827Z,50.00
2017-10-07T23:03:02.903Z,49.60
2017-10-07T23:05:30.984Z,50.40
2017-10-07T23:07:59.051Z,49.60
2017-10-07T23:10:27.140Z,49.60
2017-10-07T23:12:56.729Z,49.60
2017-10-07T23:15:24.926Z,49.60
2017-10-07T23:17:53.027Z,50.90
2017-10-07T23:20:21.869Z,50.30
2017-10-07T23:22:50.710Z,50.80
2017-10-07T23:25:19.539Z,50.40
2017-10-07T23:27:48.380Z,51.20
2017-10-07T23:30:17.215Z,51.40
2017-10-07T23:32:46.060Z,51.80
2017-10-07T23:35:14.903Z,51.20
2017-10-07T23:37:42.995Z,51.10
2017-10-07T23:40:11.064Z,52.20
2017-10-07T23:42:39.420Z,51.90
2017-10-07T23:45:07.503Z,52.90
2017-10-07T23:47:36.343Z,54.10
2017-10-07T23:50:05.200Z,53.90
2017-10-07T23:52:33.267Z,53.90
2017-10-07T23:55:01.350Z,53.50
2017-10-07T23:57:29.416Z,53.90
2017-10-07T23:59:57.494Z,53.40
